UAL948 KSFO-EGLL
Flight info
| Callsign | UAL948 |
|---|---|
| Flight time | N/A |
| Altitude | 35000 |
| Route | SNTNA2 ORRCA DCT FMG J94 LLC DCT DLN DCT HILGR/N0480F370 DCT 50N105W 54N095W 57N085W 60N074W/N0490F390 DCT GRIBS/M084F390 DCT KETLA DCT 63N050W 63N040W 62N030W 59N020W DCT AGORI/N0490F390 DCT OSBOX DCT MIMKU DCT KELLY L10 WAL UY53 NUGRA |
| Aircraft | B772/H-SDE3FGHIJ4J5J7M1M3P2RWXYZ/LB1D1 |
Departure
| Time | 2026-05-08 06:07 |
|---|---|
| Airport | San Francisco International Airport (KSFO) |
Arrival
| Time | N/A |
|---|---|
| Airport | London Heathrow Airport (EGLL) |
| Time | Latitude | Longitude | Altitude | Speed | Heading |
|---|---|---|---|---|---|
| 2026-05-08 05:26 | 37.61802 | -122.39326 | 26 ft | 0 kts | 27° |
| 2026-05-08 05:48 | 37.61781 | -122.39339 | 26 ft | 4 kts | 26° |
| 2026-05-08 05:48 | 37.61757 | -122.39352 | 26 ft | 4 kts | 8° |
| 2026-05-08 05:48 | 37.61732 | -122.39350 | 25 ft | 4 kts | 331° |
| 2026-05-08 05:49 | 37.61715 | -122.39331 | 26 ft | 2 kts | 298° |
| 2026-05-08 05:49 | 37.61714 | -122.39330 | 26 ft | 0 kts | 298° |
| 2026-05-08 05:53 | 37.61714 | -122.39331 | 26 ft | 1 kts | 298° |
| 2026-05-08 05:53 | 37.61718 | -122.39339 | 26 ft | 2 kts | 298° |
| 2026-05-08 05:54 | 37.61725 | -122.39356 | 26 ft | 4 kts | 298° |
| 2026-05-08 05:54 | 37.61746 | -122.39406 | 26 ft | 9 kts | 298° |
| 2026-05-08 05:54 | 37.61785 | -122.39484 | 26 ft | 11 kts | 314° |
| 2026-05-08 05:54 | 37.61853 | -122.39525 | 26 ft | 11 kts | 342° |
| 2026-05-08 05:55 | 37.61927 | -122.39528 | 26 ft | 11 kts | 17° |
| 2026-05-08 05:55 | 37.61976 | -122.39458 | 26 ft | 11 kts | 69° |
| 2026-05-08 05:55 | 37.62000 | -122.39364 | 26 ft | 11 kts | 73° |
| 2026-05-08 05:55 | 37.62024 | -122.39270 | 26 ft | 11 kts | 68° |
| 2026-05-08 05:56 | 37.62081 | -122.39205 | 25 ft | 11 kts | 28° |
| 2026-05-08 05:56 | 37.62152 | -122.39159 | 25 ft | 11 kts | 27° |
| 2026-05-08 05:56 | 37.62219 | -122.39105 | 26 ft | 11 kts | 46° |
| 2026-05-08 05:56 | 37.62249 | -122.39011 | 26 ft | 12 kts | 72° |
| 2026-05-08 05:57 | 37.62259 | -122.38911 | 26 ft | 12 kts | 105° |
| 2026-05-08 05:57 | 37.62221 | -122.38815 | 25 ft | 12 kts | 118° |
| 2026-05-08 05:57 | 37.62181 | -122.38720 | 26 ft | 12 kts | 118° |
| 2026-05-08 05:57 | 37.62141 | -122.38624 | 26 ft | 12 kts | 117° |
| 2026-05-08 05:58 | 37.62102 | -122.38530 | 26 ft | 12 kts | 117° |
| 2026-05-08 05:58 | 37.62063 | -122.38435 | 26 ft | 12 kts | 117° |
| 2026-05-08 05:58 | 37.62023 | -122.38340 | 25 ft | 12 kts | 117° |
| 2026-05-08 05:58 | 37.61983 | -122.38245 | 26 ft | 12 kts | 118° |
| 2026-05-08 05:59 | 37.61943 | -122.38150 | 26 ft | 12 kts | 118° |
| 2026-05-08 05:59 | 37.61903 | -122.38055 | 26 ft | 12 kts | 117° |
| 2026-05-08 05:59 | 37.61863 | -122.37960 | 26 ft | 12 kts | 117° |
| 2026-05-08 05:59 | 37.61827 | -122.37862 | 26 ft | 12 kts | 110° |
| 2026-05-08 06:00 | 37.61797 | -122.37763 | 26 ft | 12 kts | 111° |
| 2026-05-08 06:00 | 37.61766 | -122.37663 | 25 ft | 12 kts | 111° |
| 2026-05-08 06:00 | 37.61734 | -122.37563 | 26 ft | 12 kts | 111° |
| 2026-05-08 06:00 | 37.61699 | -122.37465 | 26 ft | 12 kts | 117° |
| 2026-05-08 06:01 | 37.61659 | -122.37370 | 26 ft | 12 kts | 118° |
| 2026-05-08 06:01 | 37.61619 | -122.37275 | 25 ft | 12 kts | 118° |
| 2026-05-08 06:01 | 37.61579 | -122.37180 | 26 ft | 12 kts | 117° |
| 2026-05-08 06:01 | 37.61540 | -122.37085 | 26 ft | 12 kts | 117° |
| 2026-05-08 06:02 | 37.61500 | -122.36989 | 26 ft | 12 kts | 118° |
| 2026-05-08 06:02 | 37.61450 | -122.36903 | 25 ft | 12 kts | 131° |
| 2026-05-08 06:02 | 37.61394 | -122.36824 | 26 ft | 12 kts | 131° |
| 2026-05-08 06:02 | 37.61346 | -122.36735 | 25 ft | 12 kts | 118° |
| 2026-05-08 06:03 | 37.61307 | -122.36640 | 26 ft | 12 kts | 117° |
| 2026-05-08 06:03 | 37.61267 | -122.36545 | 26 ft | 12 kts | 118° |
| 2026-05-08 06:03 | 37.61226 | -122.36451 | 26 ft | 12 kts | 118° |
| 2026-05-08 06:03 | 37.61186 | -122.36356 | 26 ft | 12 kts | 118° |
| 2026-05-08 06:04 | 37.61146 | -122.36261 | 26 ft | 12 kts | 118° |
| 2026-05-08 06:04 | 37.61106 | -122.36166 | 26 ft | 12 kts | 118° |
| 2026-05-08 06:04 | 37.61066 | -122.36071 | 26 ft | 12 kts | 117° |
| 2026-05-08 06:04 | 37.61055 | -122.35967 | 26 ft | 12 kts | 78° |
| 2026-05-08 06:05 | 37.61105 | -122.35899 | 26 ft | 7 kts | 29° |
| 2026-05-08 06:05 | 37.61147 | -122.35871 | 26 ft | 7 kts | 25° |
| 2026-05-08 06:05 | 37.61189 | -122.35881 | 26 ft | 7 kts | 308° |
| 2026-05-08 06:05 | 37.61203 | -122.35911 | 26 ft | 0 kts | 297° |
| 2026-05-08 06:06 | 37.61211 | -122.35931 | 26 ft | 12 kts | 297° |
| 2026-05-08 06:06 | 37.61330 | -122.36217 | 26 ft | 67 kts | 297° |
| 2026-05-08 06:06 | 37.61641 | -122.36957 | 25 ft | 123 kts | 297° |
| 2026-05-08 06:07 | 37.62118 | -122.38091 | 51 ft | 168 kts | 297° |
| 2026-05-08 06:07 | 37.62663 | -122.39385 | 688 ft | 164 kts | 296° |
| 2026-05-08 06:07 | 37.63203 | -122.40655 | 1284 ft | 168 kts | 295° |
| 2026-05-08 06:07 | 37.63760 | -122.41965 | 1916 ft | 172 kts | 296° |
| 2026-05-08 06:08 | 37.64355 | -122.43364 | 2336 ft | 191 kts | 297° |
| 2026-05-08 06:08 | 37.65028 | -122.44910 | 2683 ft | 212 kts | 299° |
| 2026-05-08 06:08 | 37.65768 | -122.46629 | 3096 ft | 230 kts | 299° |
| 2026-05-08 06:08 | 37.66562 | -122.48463 | 3461 ft | 248 kts | 300° |
| 2026-05-08 06:09 | 37.67405 | -122.50409 | 3814 ft | 254 kts | 303° |
| 2026-05-08 06:09 | 37.68667 | -122.51957 | 4117 ft | 260 kts | 334° |
| 2026-05-08 06:09 | 37.70406 | -122.52494 | 4586 ft | 263 kts | 356° |
| 2026-05-08 06:09 | 37.72251 | -122.52548 | 5002 ft | 269 kts | 357° |
| 2026-05-08 06:10 | 37.74128 | -122.52614 | 5519 ft | 272 kts | 356° |
| 2026-05-08 06:10 | 37.76035 | -122.52688 | 6053 ft | 275 kts | 356° |
| 2026-05-08 06:10 | 37.77957 | -122.52749 | 6556 ft | 276 kts | 0° |
| 2026-05-08 06:10 | 37.79836 | -122.52206 | 6875 ft | 286 kts | 29° |
| 2026-05-08 06:11 | 37.81276 | -122.50470 | 7351 ft | 291 kts | 59° |
| 2026-05-08 06:11 | 37.82115 | -122.48229 | 7800 ft | 292 kts | 66° |
| 2026-05-08 06:11 | 37.82959 | -122.45803 | 8285 ft | 296 kts | 65° |
| 2026-05-08 06:11 | 37.83817 | -122.43428 | 8800 ft | 296 kts | 60° |
| 2026-05-08 06:12 | 37.84978 | -122.41304 | 9211 ft | 300 kts | 49° |
| 2026-05-08 06:12 | 37.86355 | -122.39319 | 9738 ft | 302 kts | 46° |
| 2026-05-08 06:12 | 37.87783 | -122.37359 | 10234 ft | 306 kts | 46° |
| 2026-05-08 06:12 | 37.89265 | -122.35326 | 10399 ft | 323 kts | 47° |
| 2026-05-08 06:13 | 37.90820 | -122.33167 | 10550 ft | 341 kts | 47° |
| 2026-05-08 06:13 | 37.92449 | -122.30878 | 10701 ft | 359 kts | 47° |
| 2026-05-08 06:13 | 37.94159 | -122.28456 | 10858 ft | 378 kts | 47° |
| 2026-05-08 06:13 | 37.95946 | -122.25903 | 11083 ft | 395 kts | 48° |
| 2026-05-08 06:14 | 37.97791 | -122.23254 | 11538 ft | 405 kts | 48° |
| 2026-05-08 06:14 | 37.99665 | -122.20551 | 12150 ft | 411 kts | 48° |
| 2026-05-08 06:14 | 38.01538 | -122.17843 | 12868 ft | 415 kts | 48° |
| 2026-05-08 06:14 | 38.03445 | -122.15082 | 13609 ft | 417 kts | 48° |
| 2026-05-08 06:15 | 38.05364 | -122.12301 | 14294 ft | 421 kts | 48° |
| 2026-05-08 06:15 | 38.07301 | -122.09492 | 14963 ft | 425 kts | 48° |
| 2026-05-08 06:15 | 38.09251 | -122.06659 | 15608 ft | 428 kts | 48° |
| 2026-05-08 06:15 | 38.11219 | -122.03796 | 16219 ft | 432 kts | 49° |
| 2026-05-08 06:16 | 38.13205 | -122.00907 | 16844 ft | 435 kts | 48° |
| 2026-05-08 06:16 | 38.15202 | -121.98001 | 17447 ft | 438 kts | 49° |
| 2026-05-08 06:16 | 38.17189 | -121.95107 | 17975 ft | 442 kts | 49° |
| 2026-05-08 06:16 | 38.19214 | -121.92155 | 18512 ft | 445 kts | 49° |
| 2026-05-08 06:17 | 38.23321 | -121.86161 | 19480 ft | 454 kts | 49° |
| 2026-05-08 06:17 | 38.25400 | -121.83121 | 19905 ft | 458 kts | 49° |
| 2026-05-08 06:17 | 38.27498 | -121.80051 | 20316 ft | 462 kts | 49° |
| 2026-05-08 06:18 | 38.29620 | -121.76942 | 20731 ft | 466 kts | 49° |
| 2026-05-08 06:18 | 38.31750 | -121.73819 | 21126 ft | 470 kts | 49° |
| 2026-05-08 06:18 | 38.33901 | -121.70661 | 21531 ft | 473 kts | 49° |
| 2026-05-08 06:18 | 38.36068 | -121.67478 | 21938 ft | 476 kts | 49° |
| 2026-05-08 06:19 | 38.38212 | -121.64324 | 22327 ft | 480 kts | 49° |
| 2026-05-08 06:19 | 38.40399 | -121.61102 | 22695 ft | 483 kts | 49° |
| 2026-05-08 06:19 | 38.42614 | -121.57841 | 23049 ft | 487 kts | 49° |
| 2026-05-08 06:19 | 38.44822 | -121.54569 | 23410 ft | 490 kts | 50° |
| 2026-05-08 06:20 | 38.46958 | -121.51167 | 23757 ft | 493 kts | 52° |
| 2026-05-08 06:20 | 38.49028 | -121.47663 | 24083 ft | 497 kts | 53° |
| 2026-05-08 06:20 | 38.51083 | -121.44090 | 24403 ft | 499 kts | 53° |
| 2026-05-08 06:20 | 38.53135 | -121.40509 | 24739 ft | 501 kts | 53° |
| 2026-05-08 06:21 | 38.55178 | -121.36955 | 25052 ft | 504 kts | 53° |
| 2026-05-08 06:21 | 38.57262 | -121.33354 | 25346 ft | 505 kts | 53° |
| 2026-05-08 06:21 | 38.59363 | -121.29747 | 25622 ft | 508 kts | 53° |
| 2026-05-08 06:21 | 38.61488 | -121.26112 | 25870 ft | 510 kts | 52° |
| 2026-05-08 06:22 | 38.63616 | -121.22478 | 26113 ft | 512 kts | 52° |
| 2026-05-08 06:22 | 38.65750 | -121.18829 | 26357 ft | 513 kts | 52° |
| 2026-05-08 06:22 | 38.67893 | -121.15161 | 26576 ft | 515 kts | 52° |
| 2026-05-08 06:22 | 38.70036 | -121.11488 | 26768 ft | 517 kts | 52° |
| 2026-05-08 06:23 | 38.72185 | -121.07798 | 26955 ft | 518 kts | 52° |
| 2026-05-08 06:23 | 38.74340 | -121.04090 | 27176 ft | 519 kts | 53° |
| 2026-05-08 06:23 | 38.76488 | -121.00390 | 27485 ft | 517 kts | 53° |
| 2026-05-08 06:23 | 38.78603 | -120.96747 | 27814 ft | 515 kts | 53° |
| 2026-05-08 06:24 | 38.80733 | -120.93071 | 28126 ft | 513 kts | 53° |
| 2026-05-08 06:24 | 38.82858 | -120.89399 | 28405 ft | 513 kts | 53° |
| 2026-05-08 06:24 | 38.84984 | -120.85722 | 28679 ft | 512 kts | 53° |
| 2026-05-08 06:24 | 38.87099 | -120.82058 | 28950 ft | 511 kts | 53° |
| 2026-05-08 06:25 | 38.89210 | -120.78398 | 29223 ft | 510 kts | 53° |
| 2026-05-08 06:25 | 38.91317 | -120.74740 | 29491 ft | 509 kts | 53° |
| 2026-05-08 06:25 | 38.93391 | -120.71132 | 29758 ft | 508 kts | 53° |
| 2026-05-08 06:25 | 38.95485 | -120.67489 | 30025 ft | 507 kts | 53° |
| 2026-05-08 06:26 | 38.97581 | -120.63842 | 30277 ft | 506 kts | 53° |
| 2026-05-08 06:26 | 38.99667 | -120.60207 | 30547 ft | 505 kts | 53° |
| 2026-05-08 06:26 | 39.01752 | -120.56568 | 30795 ft | 504 kts | 53° |
| 2026-05-08 06:26 | 39.03825 | -120.52946 | 31036 ft | 504 kts | 53° |
| 2026-05-08 06:27 | 39.05896 | -120.49321 | 31274 ft | 503 kts | 53° |
| 2026-05-08 06:27 | 39.07969 | -120.45691 | 31520 ft | 502 kts | 53° |
| 2026-05-08 06:27 | 39.10029 | -120.42079 | 31750 ft | 501 kts | 53° |
| 2026-05-08 06:27 | 39.12062 | -120.38507 | 31962 ft | 500 kts | 53° |
| 2026-05-08 06:28 | 39.14116 | -120.34897 | 32181 ft | 500 kts | 52° |
| 2026-05-08 06:28 | 39.16165 | -120.31295 | 32385 ft | 499 kts | 52° |
| 2026-05-08 06:28 | 39.18216 | -120.27685 | 32593 ft | 499 kts | 52° |
| 2026-05-08 06:28 | 39.20262 | -120.24079 | 32816 ft | 498 kts | 52° |
| 2026-05-08 06:29 | 39.22301 | -120.20480 | 33034 ft | 496 kts | 52° |
| 2026-05-08 06:29 | 39.24333 | -120.16887 | 33237 ft | 496 kts | 52° |
| 2026-05-08 06:29 | 39.26367 | -120.13289 | 33431 ft | 495 kts | 52° |
| 2026-05-08 06:29 | 39.28390 | -120.09703 | 33629 ft | 495 kts | 52° |
| 2026-05-08 06:30 | 39.30391 | -120.06153 | 33840 ft | 494 kts | 52° |
| 2026-05-08 06:30 | 39.32408 | -120.02572 | 34066 ft | 493 kts | 52° |
| 2026-05-08 06:30 | 39.34423 | -119.98992 | 34267 ft | 492 kts | 52° |
| 2026-05-08 06:30 | 39.36436 | -119.95410 | 34453 ft | 492 kts | 52° |
| 2026-05-08 06:31 | 39.38438 | -119.91842 | 34670 ft | 490 kts | 52° |
| 2026-05-08 06:31 | 39.40438 | -119.88276 | 34837 ft | 490 kts | 52° |
| 2026-05-08 06:31 | 39.42441 | -119.84702 | 34978 ft | 490 kts | 52° |
| 2026-05-08 06:31 | 39.44439 | -119.81131 | 35103 ft | 491 kts | 52° |
| 2026-05-08 06:32 | 39.48412 | -119.74015 | 35206 ft | 491 kts | 52° |
| 2026-05-08 06:32 | 39.52409 | -119.66846 | 35196 ft | 490 kts | 52° |
| 2026-05-08 06:33 | 39.56398 | -119.59700 | 35191 ft | 489 kts | 52° |
| 2026-05-08 06:33 | 39.60383 | -119.52575 | 35196 ft | 488 kts | 52° |
| 2026-05-08 06:34 | 39.64338 | -119.45492 | 35191 ft | 488 kts | 52° |
| 2026-05-08 06:34 | 39.68317 | -119.38344 | 35195 ft | 488 kts | 52° |
| 2026-05-08 06:35 | 39.72290 | -119.31182 | 35164 ft | 489 kts | 52° |
| 2026-05-08 06:35 | 39.76242 | -119.24043 | 35154 ft | 490 kts | 52° |
| 2026-05-08 06:36 | 39.80218 | -119.16848 | 35139 ft | 490 kts | 52° |
| 2026-05-08 06:36 | 39.84189 | -119.09646 | 35135 ft | 490 kts | 52° |
| 2026-05-08 06:37 | 39.88157 | -119.02435 | 35125 ft | 490 kts | 52° |
| 2026-05-08 06:37 | 39.92119 | -118.95211 | 35117 ft | 490 kts | 52° |
| 2026-05-08 06:38 | 39.96071 | -118.87985 | 35113 ft | 489 kts | 52° |
| 2026-05-08 06:38 | 39.99992 | -118.80815 | 35107 ft | 489 kts | 52° |
| 2026-05-08 06:39 | 40.03933 | -118.73582 | 35096 ft | 489 kts | 52° |
| 2026-05-08 06:39 | 40.07867 | -118.66346 | 35084 ft | 489 kts | 52° |
| 2026-05-08 06:40 | 40.11877 | -118.59270 | 35082 ft | 486 kts | 46° |
| 2026-05-08 06:40 | 40.16720 | -118.53168 | 35097 ft | 482 kts | 36° |
| 2026-05-08 06:41 | 40.21976 | -118.47697 | 35082 ft | 484 kts | 36° |
| 2026-05-08 06:41 | 40.27242 | -118.42200 | 35095 ft | 484 kts | 36° |
| 2026-05-08 06:42 | 40.32487 | -118.36666 | 35104 ft | 484 kts | 36° |
| 2026-05-08 06:42 | 40.37688 | -118.31140 | 35104 ft | 485 kts | 37° |
| 2026-05-08 06:43 | 40.42925 | -118.25557 | 35104 ft | 485 kts | 37° |
| 2026-05-08 06:43 | 40.48151 | -118.19979 | 35101 ft | 484 kts | 37° |
| 2026-05-08 06:44 | 40.53378 | -118.14388 | 35099 ft | 484 kts | 37° |
| 2026-05-08 06:44 | 40.58554 | -118.08838 | 35098 ft | 483 kts | 37° |
| 2026-05-08 06:45 | 40.63761 | -118.03248 | 35098 ft | 483 kts | 37° |
| 2026-05-08 06:45 | 40.68954 | -117.97659 | 35088 ft | 482 kts | 36° |
| 2026-05-08 06:46 | 40.74149 | -117.92057 | 35098 ft | 482 kts | 36° |
| 2026-05-08 06:46 | 40.79301 | -117.86489 | 35086 ft | 482 kts | 36° |
| 2026-05-08 06:47 | 40.84477 | -117.80885 | 35094 ft | 481 kts | 36° |
| 2026-05-08 06:47 | 40.89650 | -117.75272 | 35099 ft | 481 kts | 36° |
| 2026-05-08 06:48 | 40.94820 | -117.69650 | 35086 ft | 481 kts | 36° |
| 2026-05-08 06:48 | 40.99989 | -117.64020 | 35095 ft | 481 kts | 36° |
| 2026-05-08 06:49 | 41.05125 | -117.58414 | 35086 ft | 482 kts | 36° |
| 2026-05-08 06:49 | 41.10288 | -117.52761 | 35099 ft | 481 kts | 36° |
| 2026-05-08 06:50 | 41.15439 | -117.47110 | 35085 ft | 480 kts | 36° |
| 2026-05-08 06:50 | 41.20582 | -117.41458 | 35100 ft | 480 kts | 36° |
| 2026-05-08 06:51 | 41.25688 | -117.35834 | 35079 ft | 480 kts | 36° |
| 2026-05-08 06:51 | 41.30827 | -117.30167 | 35089 ft | 480 kts | 36° |
| 2026-05-08 06:52 | 41.35960 | -117.24489 | 35097 ft | 480 kts | 36° |
| 2026-05-08 06:52 | 41.41088 | -117.18809 | 35098 ft | 479 kts | 36° |
| 2026-05-08 06:53 | 41.46180 | -117.13153 | 35079 ft | 480 kts | 36° |
| 2026-05-08 06:53 | 41.51307 | -117.07445 | 35094 ft | 480 kts | 36° |
| 2026-05-08 06:54 | 41.56431 | -117.01733 | 35077 ft | 479 kts | 36° |
| 2026-05-08 06:54 | 41.61535 | -116.96024 | 35076 ft | 478 kts | 36° |
| 2026-05-08 06:55 | 41.66631 | -116.90313 | 35081 ft | 478 kts | 36° |
| 2026-05-08 06:55 | 41.71689 | -116.84637 | 35075 ft | 477 kts | 36° |
| 2026-05-08 06:56 | 41.76771 | -116.78925 | 35078 ft | 477 kts | 36° |
| 2026-05-08 06:56 | 41.81846 | -116.73206 | 35078 ft | 477 kts | 36° |
| 2026-05-08 06:57 | 41.86918 | -116.67473 | 35075 ft | 477 kts | 36° |
| 2026-05-08 06:57 | 41.91949 | -116.61778 | 35072 ft | 476 kts | 36° |
| 2026-05-08 06:58 | 41.97009 | -116.56037 | 35076 ft | 476 kts | 36° |
| 2026-05-08 06:58 | 42.02057 | -116.50298 | 35072 ft | 475 kts | 36° |
| 2026-05-08 06:59 | 42.07103 | -116.44548 | 35062 ft | 475 kts | 36° |
| 2026-05-08 06:59 | 42.12113 | -116.38828 | 35057 ft | 475 kts | 36° |
| 2026-05-08 07:00 | 42.17149 | -116.33066 | 35053 ft | 475 kts | 36° |
| 2026-05-08 07:00 | 42.22185 | -116.27290 | 35045 ft | 475 kts | 36° |
| 2026-05-08 07:01 | 42.27216 | -116.21506 | 35045 ft | 474 kts | 36° |
| 2026-05-08 07:01 | 42.32241 | -116.15719 | 35042 ft | 475 kts | 36° |
| 2026-05-08 07:02 | 42.37225 | -116.09966 | 35039 ft | 474 kts | 36° |
| 2026-05-08 07:02 | 42.42244 | -116.04160 | 35037 ft | 475 kts | 36° |
| 2026-05-08 07:03 | 42.47268 | -115.98337 | 35029 ft | 475 kts | 36° |
| 2026-05-08 07:03 | 42.52283 | -115.92509 | 35028 ft | 475 kts | 36° |
| 2026-05-08 07:04 | 42.57260 | -115.86714 | 35029 ft | 475 kts | 36° |
| 2026-05-08 07:04 | 42.62266 | -115.80871 | 35026 ft | 474 kts | 36° |
| 2026-05-08 07:05 | 42.67264 | -115.75022 | 35030 ft | 474 kts | 36° |
| 2026-05-08 07:05 | 42.72256 | -115.69172 | 35031 ft | 474 kts | 36° |
| 2026-05-08 07:06 | 42.77211 | -115.63352 | 35023 ft | 474 kts | 35° |
| 2026-05-08 07:06 | 42.82194 | -115.57485 | 35033 ft | 473 kts | 35° |
| 2026-05-08 07:07 | 42.87175 | -115.51609 | 35024 ft | 473 kts | 35° |
| 2026-05-08 07:07 | 42.92152 | -115.45722 | 35027 ft | 473 kts | 35° |
| 2026-05-08 07:08 | 42.97089 | -115.39871 | 35025 ft | 473 kts | 35° |
| 2026-05-08 07:08 | 43.02053 | -115.33975 | 35037 ft | 472 kts | 35° |
| 2026-05-08 07:09 | 43.07009 | -115.28077 | 35036 ft | 472 kts | 35° |
| 2026-05-08 07:09 | 43.11960 | -115.22171 | 35031 ft | 472 kts | 35° |
| 2026-05-08 07:10 | 43.16906 | -115.16254 | 35035 ft | 472 kts | 35° |
| 2026-05-08 07:10 | 43.21814 | -115.10371 | 35039 ft | 472 kts | 35° |
| 2026-05-08 07:11 | 43.26761 | -115.04429 | 35047 ft | 473 kts | 35° |
| 2026-05-08 07:11 | 43.31709 | -114.98476 | 35045 ft | 473 kts | 35° |
| 2026-05-08 07:12 | 43.36649 | -114.92515 | 35047 ft | 472 kts | 35° |
| 2026-05-08 07:12 | 43.41576 | -114.86553 | 35064 ft | 471 kts | 35° |
| 2026-05-08 07:13 | 43.46455 | -114.80639 | 35072 ft | 470 kts | 34° |
| 2026-05-08 07:13 | 43.51363 | -114.74680 | 35085 ft | 470 kts | 34° |
| 2026-05-08 07:14 | 43.56257 | -114.68719 | 35081 ft | 469 kts | 34° |
| 2026-05-08 07:14 | 43.61143 | -114.62759 | 35097 ft | 469 kts | 34° |
| 2026-05-08 07:15 | 43.65988 | -114.56835 | 35080 ft | 469 kts | 34° |
| 2026-05-08 07:15 | 43.70870 | -114.50852 | 35083 ft | 469 kts | 34° |
| 2026-05-08 07:16 | 43.75741 | -114.44866 | 35103 ft | 469 kts | 34° |
| 2026-05-08 07:16 | 43.80610 | -114.38867 | 35077 ft | 468 kts | 34° |
| 2026-05-08 07:17 | 43.85435 | -114.32907 | 35097 ft | 468 kts | 34° |
| 2026-05-08 07:17 | 43.90299 | -114.26900 | 35106 ft | 468 kts | 34° |
| 2026-05-08 07:18 | 43.95163 | -114.20875 | 35098 ft | 469 kts | 34° |
| 2026-05-08 07:18 | 44.00014 | -114.14846 | 35077 ft | 468 kts | 34° |
| 2026-05-08 07:19 | 44.04832 | -114.08844 | 35069 ft | 468 kts | 34° |
| 2026-05-08 07:19 | 44.09666 | -114.02807 | 35075 ft | 467 kts | 34° |
| 2026-05-08 07:20 | 44.14506 | -113.96751 | 35067 ft | 467 kts | 34° |
| 2026-05-08 07:20 | 44.19334 | -113.90696 | 35075 ft | 467 kts | 34° |
| 2026-05-08 07:21 | 44.24168 | -113.84625 | 35064 ft | 467 kts | 34° |
| 2026-05-08 07:21 | 44.28957 | -113.78591 | 35087 ft | 467 kts | 34° |
| 2026-05-08 07:22 | 44.33776 | -113.72501 | 35072 ft | 468 kts | 34° |
| 2026-05-08 07:22 | 44.38599 | -113.66401 | 35068 ft | 468 kts | 34° |
| 2026-05-08 07:23 | 44.43419 | -113.60286 | 35081 ft | 467 kts | 34° |
| 2026-05-08 07:23 | 44.48193 | -113.54213 | 35079 ft | 467 kts | 34° |
| 2026-05-08 07:24 | 44.52989 | -113.48102 | 35080 ft | 466 kts | 34° |
| 2026-05-08 07:24 | 44.57783 | -113.41979 | 35079 ft | 465 kts | 34° |
| 2026-05-08 07:25 | 44.62557 | -113.35864 | 35075 ft | 464 kts | 34° |
| 2026-05-08 07:26 | 44.69666 | -113.26735 | 35072 ft | 463 kts | 34° |
| 2026-05-08 07:26 | 44.74412 | -113.20624 | 35075 ft | 463 kts | 34° |
| 2026-05-08 07:27 | 44.79155 | -113.14500 | 35066 ft | 462 kts | 34° |
| 2026-05-08 07:27 | 44.83883 | -113.08388 | 35073 ft | 461 kts | 34° |
| 2026-05-08 07:28 | 44.88573 | -113.02308 | 35171 ft | 462 kts | 34° |
| 2026-05-08 07:28 | 44.90934 | -112.99237 | 35372 ft | 461 kts | 34° |
| 2026-05-08 07:28 | 44.93289 | -112.96170 | 35587 ft | 460 kts | 34° |
| 2026-05-08 07:28 | 44.95631 | -112.93118 | 35787 ft | 459 kts | 34° |
| 2026-05-08 07:29 | 44.97979 | -112.90057 | 35940 ft | 458 kts | 34° |
| 2026-05-08 07:29 | 45.00314 | -112.87008 | 36075 ft | 458 kts | 34° |
| 2026-05-08 07:29 | 45.02654 | -112.83952 | 36195 ft | 458 kts | 34° |
| 2026-05-08 07:29 | 45.04993 | -112.80893 | 36326 ft | 458 kts | 34° |
| 2026-05-08 07:30 | 45.07326 | -112.77836 | 36455 ft | 458 kts | 34° |
| 2026-05-08 07:30 | 45.09624 | -112.74823 | 36628 ft | 456 kts | 34° |
| 2026-05-08 07:30 | 45.11950 | -112.71769 | 36846 ft | 454 kts | 33° |
| 2026-05-08 07:30 | 45.14248 | -112.68747 | 37012 ft | 451 kts | 33° |
| 2026-05-08 07:31 | 45.16540 | -112.65729 | 37055 ft | 448 kts | 33° |
| 2026-05-08 07:31 | 45.21078 | -112.59747 | 37066 ft | 443 kts | 33° |
| 2026-05-08 07:32 | 45.25549 | -112.53769 | 37068 ft | 443 kts | 36° |
| 2026-05-08 07:32 | 45.29768 | -112.47444 | 37076 ft | 444 kts | 37° |
| 2026-05-08 07:33 | 45.33972 | -112.41004 | 37076 ft | 445 kts | 37° |
| 2026-05-08 07:33 | 45.38193 | -112.34545 | 37081 ft | 446 kts | 37° |
| 2026-05-08 07:34 | 45.42432 | -112.28067 | 37082 ft | 448 kts | 37° |
| 2026-05-08 07:34 | 45.46657 | -112.21611 | 37077 ft | 449 kts | 37° |
| 2026-05-08 07:35 | 45.50911 | -112.15090 | 37093 ft | 449 kts | 37° |
| 2026-05-08 07:35 | 45.55162 | -112.08558 | 37097 ft | 449 kts | 37° |
| 2026-05-08 07:36 | 45.59414 | -112.02016 | 37082 ft | 449 kts | 37° |
| 2026-05-08 07:36 | 45.63651 | -111.95471 | 37093 ft | 448 kts | 37° |
| 2026-05-08 07:37 | 45.67845 | -111.88981 | 37079 ft | 447 kts | 37° |
| 2026-05-08 07:37 | 45.72059 | -111.82448 | 37085 ft | 446 kts | 37° |
| 2026-05-08 07:38 | 45.76252 | -111.75924 | 37084 ft | 445 kts | 37° |
| 2026-05-08 07:38 | 45.80437 | -111.69407 | 37085 ft | 444 kts | 37° |
| 2026-05-08 07:39 | 45.84589 | -111.62926 | 37079 ft | 444 kts | 37° |
| 2026-05-08 07:39 | 45.88766 | -111.56379 | 37072 ft | 444 kts | 37° |
| 2026-05-08 07:40 | 45.92936 | -111.49837 | 37073 ft | 444 kts | 37° |
| 2026-05-08 07:40 | 45.97111 | -111.43276 | 37080 ft | 445 kts | 37° |
| 2026-05-08 07:41 | 46.01287 | -111.36695 | 37073 ft | 446 kts | 37° |
| 2026-05-08 07:41 | 46.05440 | -111.30130 | 37082 ft | 447 kts | 37° |
| 2026-05-08 07:42 | 46.09623 | -111.23500 | 37075 ft | 448 kts | 37° |
| 2026-05-08 07:42 | 46.13807 | -111.16852 | 37064 ft | 448 kts | 37° |
| 2026-05-08 07:43 | 46.17982 | -111.10200 | 37068 ft | 446 kts | 37° |
| 2026-05-08 07:43 | 46.22112 | -111.03607 | 37064 ft | 446 kts | 37° |
| 2026-05-08 07:44 | 46.26268 | -110.96953 | 37069 ft | 446 kts | 37° |
| 2026-05-08 07:44 | 46.30427 | -110.90287 | 37073 ft | 447 kts | 37° |
| 2026-05-08 07:45 | 46.34594 | -110.83588 | 37061 ft | 448 kts | 37° |
| 2026-05-08 07:45 | 46.38731 | -110.76919 | 37064 ft | 449 kts | 38° |
| 2026-05-08 07:46 | 46.42899 | -110.70181 | 37047 ft | 449 kts | 38° |
| 2026-05-08 07:46 | 46.47064 | -110.63435 | 37049 ft | 449 kts | 38° |
| 2026-05-08 07:47 | 46.51220 | -110.56685 | 37033 ft | 449 kts | 38° |
| 2026-05-08 07:47 | 46.55379 | -110.49916 | 37030 ft | 449 kts | 38° |
| 2026-05-08 07:48 | 46.59498 | -110.43192 | 37026 ft | 448 kts | 38° |
| 2026-05-08 07:48 | 46.63637 | -110.36414 | 37020 ft | 448 kts | 38° |
| 2026-05-08 07:49 | 46.67773 | -110.29632 | 37022 ft | 448 kts | 38° |
| 2026-05-08 07:49 | 46.71206 | -110.23991 | 37006 ft | 448 kts | 38° |
| 2026-05-08 07:50 | 46.75996 | -110.16099 | 37021 ft | 446 kts | 38° |
| 2026-05-08 07:50 | 46.80102 | -110.09318 | 37017 ft | 446 kts | 38° |
| 2026-05-08 07:51 | 46.84207 | -110.02515 | 37013 ft | 447 kts | 38° |
| 2026-05-08 07:51 | 46.87629 | -109.96832 | 37001 ft | 448 kts | 39° |
| 2026-05-08 07:52 | 46.92430 | -109.88844 | 37001 ft | 451 kts | 39° |
| 2026-05-08 07:52 | 46.96571 | -109.81936 | 37003 ft | 452 kts | 39° |
| 2026-05-08 07:53 | 47.00018 | -109.76163 | 36997 ft | 454 kts | 39° |
| 2026-05-08 07:53 | 47.04175 | -109.69191 | 36993 ft | 455 kts | 39° |
| 2026-05-08 07:54 | 47.09018 | -109.61047 | 36990 ft | 456 kts | 39° |
| 2026-05-08 07:54 | 47.12514 | -109.55149 | 36994 ft | 456 kts | 40° |
| 2026-05-08 07:55 | 47.16645 | -109.48161 | 36987 ft | 456 kts | 40° |
| 2026-05-08 07:55 | 47.20798 | -109.41121 | 36993 ft | 456 kts | 40° |
| 2026-05-08 07:56 | 47.24947 | -109.34074 | 36994 ft | 456 kts | 40° |
| 2026-05-08 07:56 | 47.29091 | -109.27015 | 36987 ft | 456 kts | 40° |
| 2026-05-08 07:57 | 47.33213 | -109.19977 | 36992 ft | 457 kts | 40° |
| 2026-05-08 07:57 | 47.37435 | -109.13010 | 36984 ft | 452 kts | 37° |
| 2026-05-08 07:58 | 47.41913 | -109.06496 | 36982 ft | 452 kts | 36° |
| 2026-05-08 07:58 | 47.46414 | -109.00000 | 36983 ft | 452 kts | 36° |
| 2026-05-08 07:59 | 47.50875 | -108.93511 | 36980 ft | 453 kts | 36° |
| 2026-05-08 07:59 | 47.55368 | -108.86933 | 36972 ft | 455 kts | 37° |
| 2026-05-08 08:00 | 47.59863 | -108.80321 | 36968 ft | 456 kts | 37° |
| 2026-05-08 08:00 | 47.64369 | -108.73675 | 36973 ft | 457 kts | 37° |
| 2026-05-08 08:01 | 47.68884 | -108.67003 | 36953 ft | 459 kts | 37° |
| 2026-05-08 08:01 | 47.73375 | -108.60347 | 36955 ft | 460 kts | 38° |
| 2026-05-08 08:02 | 47.77905 | -108.53616 | 36947 ft | 461 kts | 38° |
| 2026-05-08 08:02 | 47.82443 | -108.46859 | 36942 ft | 462 kts | 38° |
| 2026-05-08 08:03 | 47.86989 | -108.40065 | 36942 ft | 463 kts | 38° |
| 2026-05-08 08:03 | 47.91538 | -108.33254 | 36942 ft | 464 kts | 38° |
| 2026-05-08 08:04 | 47.96059 | -108.26468 | 36931 ft | 465 kts | 38° |
| 2026-05-08 08:04 | 48.00619 | -108.19605 | 36928 ft | 466 kts | 39° |
| 2026-05-08 08:05 | 48.05174 | -108.12726 | 36935 ft | 466 kts | 39° |
| 2026-05-08 08:05 | 48.09731 | -108.05831 | 36929 ft | 466 kts | 39° |
| 2026-05-08 08:06 | 48.14259 | -107.98961 | 36931 ft | 467 kts | 39° |
| 2026-05-08 08:06 | 48.18816 | -107.92026 | 36912 ft | 467 kts | 39° |
| 2026-05-08 08:07 | 48.23365 | -107.85086 | 36919 ft | 467 kts | 39° |
| 2026-05-08 08:07 | 48.27903 | -107.78141 | 36929 ft | 466 kts | 39° |
| 2026-05-08 08:08 | 48.32438 | -107.71188 | 36912 ft | 466 kts | 39° |
| 2026-05-08 08:08 | 48.36937 | -107.64271 | 36927 ft | 466 kts | 39° |
| 2026-05-08 08:09 | 48.41460 | -107.57300 | 36910 ft | 465 kts | 39° |
| 2026-05-08 08:09 | 48.45967 | -107.50322 | 36911 ft | 465 kts | 39° |
| 2026-05-08 08:10 | 48.50479 | -107.43325 | 36904 ft | 465 kts | 39° |
| 2026-05-08 08:10 | 48.54988 | -107.36315 | 36904 ft | 466 kts | 39° |
| 2026-05-08 08:11 | 48.59468 | -107.29334 | 36910 ft | 466 kts | 39° |
| 2026-05-08 08:11 | 48.63968 | -107.22299 | 36903 ft | 466 kts | 39° |
| 2026-05-08 08:12 | 48.68472 | -107.15238 | 36911 ft | 467 kts | 39° |
| 2026-05-08 08:12 | 48.72977 | -107.08160 | 36907 ft | 466 kts | 39° |
| 2026-05-08 08:13 | 48.77475 | -107.01070 | 36912 ft | 467 kts | 39° |
| 2026-05-08 08:13 | 48.81934 | -106.94019 | 36904 ft | 467 kts | 40° |
| 2026-05-08 08:14 | 48.86428 | -106.86896 | 36907 ft | 467 kts | 40° |
| 2026-05-08 08:14 | 48.90912 | -106.79771 | 36906 ft | 467 kts | 40° |
| 2026-05-08 08:15 | 48.95400 | -106.72618 | 36902 ft | 467 kts | 40° |
| 2026-05-08 08:15 | 48.99852 | -106.65502 | 36906 ft | 467 kts | 40° |
| 2026-05-08 08:16 | 49.04328 | -106.58330 | 36906 ft | 467 kts | 40° |
| 2026-05-08 08:16 | 49.08799 | -106.51146 | 36889 ft | 467 kts | 40° |
| 2026-05-08 08:17 | 49.13273 | -106.43939 | 36881 ft | 468 kts | 40° |
| 2026-05-08 08:17 | 49.17743 | -106.36713 | 36876 ft | 468 kts | 40° |
| 2026-05-08 08:18 | 49.22175 | -106.29530 | 36883 ft | 467 kts | 40° |
| 2026-05-08 08:18 | 49.26631 | -106.22288 | 36879 ft | 468 kts | 40° |
| 2026-05-08 08:19 | 49.31086 | -106.15025 | 36883 ft | 468 kts | 40° |
| 2026-05-08 08:19 | 49.35536 | -106.07752 | 36881 ft | 468 kts | 40° |
| 2026-05-08 08:20 | 49.39948 | -106.00518 | 36880 ft | 468 kts | 40° |
| 2026-05-08 08:20 | 49.44390 | -105.93217 | 36874 ft | 468 kts | 40° |
| 2026-05-08 08:21 | 49.48829 | -105.85903 | 36880 ft | 468 kts | 40° |
| 2026-05-08 08:21 | 49.53264 | -105.78568 | 36880 ft | 468 kts | 40° |
| 2026-05-08 08:22 | 49.57666 | -105.71274 | 36882 ft | 468 kts | 40° |
| 2026-05-08 08:22 | 49.62100 | -105.63903 | 36877 ft | 469 kts | 40° |
| 2026-05-08 08:23 | 49.66529 | -105.56516 | 36876 ft | 469 kts | 41° |
| 2026-05-08 08:23 | 49.70961 | -105.49102 | 36874 ft | 469 kts | 41° |
| 2026-05-08 08:24 | 49.75359 | -105.41728 | 36871 ft | 470 kts | 41° |
| 2026-05-08 08:24 | 49.79784 | -105.34285 | 36869 ft | 470 kts | 41° |
| 2026-05-08 08:25 | 49.84204 | -105.26830 | 36870 ft | 470 kts | 41° |
| 2026-05-08 08:25 | 49.88624 | -105.19353 | 36872 ft | 470 kts | 41° |
| 2026-05-08 08:26 | 49.93038 | -105.11861 | 36871 ft | 471 kts | 41° |
| 2026-05-08 08:26 | 49.97424 | -105.04400 | 36868 ft | 471 kts | 41° |
| 2026-05-08 08:27 | 50.01726 | -104.96699 | 36867 ft | 475 kts | 46° |
| 2026-05-08 08:27 | 50.05696 | -104.88457 | 36866 ft | 476 kts | 48° |
| 2026-05-08 08:28 | 50.09607 | -104.80120 | 36862 ft | 477 kts | 48° |
| 2026-05-08 08:28 | 50.13516 | -104.71848 | 36860 ft | 477 kts | 47° |
| 2026-05-08 08:29 | 50.17463 | -104.63544 | 36859 ft | 477 kts | 47° |
| 2026-05-08 08:29 | 50.21416 | -104.55225 | 36862 ft | 477 kts | 47° |
| 2026-05-08 08:30 | 50.25367 | -104.46886 | 36860 ft | 478 kts | 47° |
| 2026-05-08 08:30 | 50.31283 | -104.34345 | 36861 ft | 478 kts | 48° |
| 2026-05-08 08:31 | 50.35195 | -104.26014 | 36860 ft | 478 kts | 48° |
| 2026-05-08 08:31 | 50.39137 | -104.17603 | 36864 ft | 478 kts | 48° |
| 2026-05-08 08:32 | 50.43064 | -104.09189 | 36859 ft | 479 kts | 48° |
| 2026-05-08 08:32 | 50.46989 | -104.00745 | 36858 ft | 479 kts | 48° |
| 2026-05-08 08:33 | 50.50888 | -103.92339 | 36852 ft | 479 kts | 48° |
| 2026-05-08 08:33 | 50.54807 | -103.83869 | 36850 ft | 479 kts | 49° |
| 2026-05-08 08:34 | 50.58719 | -103.75380 | 36850 ft | 479 kts | 49° |
| 2026-05-08 08:34 | 50.62629 | -103.66865 | 36846 ft | 480 kts | 49° |
| 2026-05-08 08:35 | 50.66534 | -103.58336 | 36848 ft | 480 kts | 49° |
| 2026-05-08 08:35 | 50.70404 | -103.49853 | 36842 ft | 479 kts | 49° |
| 2026-05-08 08:36 | 50.74291 | -103.41309 | 36831 ft | 479 kts | 49° |
| 2026-05-08 08:36 | 50.78170 | -103.32753 | 36835 ft | 479 kts | 49° |
| 2026-05-08 08:37 | 50.82046 | -103.24177 | 36830 ft | 479 kts | 49° |
| 2026-05-08 08:37 | 50.85918 | -103.15582 | 36830 ft | 480 kts | 49° |
| 2026-05-08 08:38 | 50.89756 | -103.07026 | 36830 ft | 480 kts | 49° |
| 2026-05-08 08:38 | 50.93617 | -102.98397 | 36810 ft | 480 kts | 49° |
| 2026-05-08 08:39 | 50.97477 | -102.89746 | 36813 ft | 480 kts | 50° |
| 2026-05-08 08:39 | 51.01333 | -102.81073 | 36805 ft | 481 kts | 50° |
| 2026-05-08 08:40 | 51.05159 | -102.72437 | 36805 ft | 481 kts | 50° |
| 2026-05-08 08:40 | 51.09003 | -102.63729 | 36804 ft | 481 kts | 50° |
| 2026-05-08 08:41 | 51.12844 | -102.55005 | 36805 ft | 481 kts | 50° |
| 2026-05-08 08:41 | 51.16678 | -102.46263 | 36804 ft | 481 kts | 50° |
| 2026-05-08 08:42 | 51.20505 | -102.37510 | 36803 ft | 482 kts | 50° |
| 2026-05-08 08:42 | 51.24302 | -102.28791 | 36806 ft | 482 kts | 50° |
| 2026-05-08 08:43 | 51.28118 | -102.20000 | 36806 ft | 481 kts | 50° |
| 2026-05-08 08:43 | 51.31924 | -102.11202 | 36804 ft | 481 kts | 51° |
| 2026-05-08 08:44 | 51.35725 | -102.02392 | 36808 ft | 481 kts | 51° |
| 2026-05-08 08:44 | 51.39520 | -101.93561 | 36808 ft | 481 kts | 51° |
| 2026-05-08 08:45 | 51.43281 | -101.84780 | 36804 ft | 481 kts | 51° |
| 2026-05-08 08:45 | 51.47064 | -101.75919 | 36806 ft | 481 kts | 51° |
| 2026-05-08 08:46 | 51.50842 | -101.67042 | 36806 ft | 482 kts | 51° |
| 2026-05-08 08:46 | 51.54608 | -101.58158 | 36807 ft | 482 kts | 51° |
| 2026-05-08 08:47 | 51.58350 | -101.49296 | 36807 ft | 482 kts | 51° |
| 2026-05-08 08:47 | 51.62108 | -101.40374 | 36803 ft | 482 kts | 51° |
| 2026-05-08 08:48 | 51.65864 | -101.31425 | 36797 ft | 482 kts | 51° |
| 2026-05-08 08:48 | 51.69610 | -101.22467 | 36800 ft | 482 kts | 51° |
| 2026-05-08 08:49 | 51.73325 | -101.13550 | 36795 ft | 482 kts | 51° |
| 2026-05-08 08:49 | 51.77057 | -101.04564 | 36796 ft | 482 kts | 52° |
| 2026-05-08 08:50 | 51.80781 | -100.95564 | 36792 ft | 482 kts | 52° |
| 2026-05-08 08:50 | 51.84499 | -100.86547 | 36786 ft | 482 kts | 52° |
| 2026-05-08 08:51 | 51.88212 | -100.77503 | 36784 ft | 482 kts | 52° |
| 2026-05-08 08:51 | 51.91923 | -100.68441 | 36789 ft | 482 kts | 52° |
| 2026-05-08 08:52 | 51.95601 | -100.59437 | 36785 ft | 482 kts | 52° |
| 2026-05-08 08:52 | 51.99293 | -100.50358 | 36787 ft | 483 kts | 52° |
| 2026-05-08 08:53 | 52.02981 | -100.41253 | 36788 ft | 482 kts | 52° |
| 2026-05-08 08:53 | 52.06664 | -100.32133 | 36786 ft | 482 kts | 52° |
| 2026-05-08 08:54 | 52.10306 | -100.23079 | 36787 ft | 482 kts | 52° |
| 2026-05-08 08:54 | 52.13968 | -100.13940 | 36788 ft | 482 kts | 52° |
| 2026-05-08 08:55 | 52.17624 | -100.04785 | 36787 ft | 482 kts | 52° |
| 2026-05-08 08:55 | 52.21276 | -99.95618 | 36783 ft | 482 kts | 53° |
| 2026-05-08 08:56 | 52.24893 | -99.86494 | 36780 ft | 483 kts | 53° |
| 2026-05-08 08:56 | 52.28529 | -99.77286 | 36788 ft | 482 kts | 53° |
| 2026-05-08 08:57 | 52.32162 | -99.68062 | 36786 ft | 483 kts | 53° |
| 2026-05-08 08:57 | 52.35789 | -99.58818 | 36787 ft | 483 kts | 53° |
| 2026-05-08 08:58 | 52.39407 | -99.49563 | 36787 ft | 483 kts | 53° |
| 2026-05-08 08:58 | 52.42996 | -99.40347 | 36788 ft | 483 kts | 53° |
| 2026-05-08 08:59 | 52.46605 | -99.31045 | 36787 ft | 483 kts | 53° |
| 2026-05-08 08:59 | 52.50209 | -99.21727 | 36787 ft | 483 kts | 53° |
| 2026-05-08 09:00 | 52.53800 | -99.12407 | 36786 ft | 483 kts | 53° |
| 2026-05-08 09:00 | 52.57391 | -99.03050 | 36789 ft | 484 kts | 53° |
| 2026-05-08 09:01 | 52.60944 | -98.93756 | 36787 ft | 484 kts | 53° |
| 2026-05-08 09:01 | 52.64520 | -98.84361 | 36787 ft | 484 kts | 53° |
| 2026-05-08 09:02 | 52.68089 | -98.74963 | 36779 ft | 484 kts | 53° |
| 2026-05-08 09:02 | 52.71652 | -98.65546 | 36773 ft | 484 kts | 54° |
| 2026-05-08 09:03 | 52.75181 | -98.56174 | 36779 ft | 484 kts | 54° |
| 2026-05-08 09:03 | 52.78735 | -98.46708 | 36777 ft | 485 kts | 54° |
| 2026-05-08 09:04 | 52.82282 | -98.37227 | 36777 ft | 485 kts | 54° |
| 2026-05-08 09:04 | 52.85818 | -98.27734 | 36777 ft | 485 kts | 54° |
| 2026-05-08 09:05 | 52.89329 | -98.18272 | 36777 ft | 485 kts | 54° |
| 2026-05-08 09:05 | 52.92854 | -98.08741 | 36777 ft | 485 kts | 54° |
| 2026-05-08 09:06 | 52.96369 | -97.99200 | 36776 ft | 485 kts | 54° |
| 2026-05-08 09:06 | 52.99883 | -97.89622 | 36773 ft | 486 kts | 54° |
| 2026-05-08 09:07 | 53.03391 | -97.80023 | 36763 ft | 486 kts | 54° |
| 2026-05-08 09:07 | 53.06870 | -97.70467 | 36754 ft | 487 kts | 54° |
| 2026-05-08 09:08 | 53.10369 | -97.60821 | 36748 ft | 487 kts | 54° |
| 2026-05-08 09:08 | 53.13862 | -97.51156 | 36750 ft | 487 kts | 54° |
| 2026-05-08 09:09 | 53.17348 | -97.41471 | 36749 ft | 487 kts | 55° |
| 2026-05-08 09:09 | 53.20800 | -97.31844 | 36750 ft | 487 kts | 55° |
| 2026-05-08 09:10 | 53.24272 | -97.22125 | 36748 ft | 487 kts | 55° |
| 2026-05-08 09:10 | 53.27736 | -97.12388 | 36744 ft | 488 kts | 55° |
| 2026-05-08 09:11 | 53.31190 | -97.02639 | 36739 ft | 488 kts | 55° |
| 2026-05-08 09:11 | 53.34619 | -96.92927 | 36741 ft | 488 kts | 55° |
| 2026-05-08 09:12 | 53.38061 | -96.83139 | 36740 ft | 488 kts | 55° |
| 2026-05-08 09:12 | 53.41498 | -96.73326 | 36741 ft | 489 kts | 55° |
| 2026-05-08 09:13 | 53.44933 | -96.63482 | 36733 ft | 489 kts | 55° |
| 2026-05-08 09:13 | 53.48364 | -96.53610 | 36734 ft | 490 kts | 55° |
| 2026-05-08 09:14 | 53.51763 | -96.43780 | 36730 ft | 490 kts | 56° |
| 2026-05-08 09:14 | 53.55179 | -96.33869 | 36729 ft | 490 kts | 56° |
| 2026-05-08 09:15 | 53.58593 | -96.23934 | 36724 ft | 490 kts | 56° |
| 2026-05-08 09:15 | 53.61993 | -96.13987 | 36722 ft | 490 kts | 56° |
| 2026-05-08 09:16 | 53.65392 | -96.04016 | 36719 ft | 491 kts | 56° |
| 2026-05-08 09:16 | 53.68759 | -95.94086 | 36713 ft | 491 kts | 56° |
| 2026-05-08 09:17 | 53.72133 | -95.84090 | 36713 ft | 491 kts | 56° |
| 2026-05-08 09:17 | 53.75503 | -95.74079 | 36706 ft | 490 kts | 56° |
| 2026-05-08 09:18 | 53.78864 | -95.64048 | 36702 ft | 490 kts | 56° |
| 2026-05-08 09:18 | 53.82216 | -95.54003 | 36700 ft | 490 kts | 56° |
| 2026-05-08 09:19 | 53.85539 | -95.44003 | 36705 ft | 491 kts | 57° |